createdAt,value
2024-01-08T00:02:09.590Z,102611.72
2024-01-08T00:04:36.121Z,102607.25
2024-01-08T00:07:02.622Z,102606.41
2024-01-08T00:09:29.095Z,102600.44
2024-01-08T00:11:55.539Z,102609.97
2024-01-08T00:14:22.024Z,102609.97
2024-01-08T00:16:48.613Z,102618.03
2024-01-08T00:19:15.262Z,102603.22
2024-01-08T00:21:42.757Z,102598.75
2024-01-08T00:24:09.493Z,102603.13
2024-01-08T00:26:36.194Z,102599.78
2024-01-08T00:29:03.095Z,102600.72
2024-01-08T00:31:29.706Z,102604.13
2024-01-08T00:33:56.187Z,102604.13
2024-01-08T00:36:23.302Z,102602.38
2024-01-08T00:38:49.896Z,102609.44
2024-01-08T00:41:16.459Z,102617.16
2024-01-08T00:43:42.956Z,102612.13
2024-01-08T00:46:09.441Z,102607.78
2024-01-08T00:48:35.988Z,102610.50
2024-01-08T00:51:02.455Z,102608.91
2024-01-08T00:53:28.992Z,102613.22
2024-01-08T00:55:55.496Z,102609.84
2024-01-08T00:58:22.059Z,102612.63
2024-01-08T01:00:48.511Z,102610.94
2024-01-08T01:03:15.247Z,102606.63
2024-01-08T01:05:41.860Z,102603.25
2024-01-08T01:08:08.330Z,102607.63
2024-01-08T01:10:34.761Z,102609.38
2024-01-08T01:13:01.165Z,102614.78
2024-01-08T01:15:27.702Z,102615.56
2024-01-08T01:17:54.335Z,102614.84
2024-01-08T01:20:20.877Z,102618.34
2024-01-08T01:22:47.377Z,102620.03
2024-01-08T01:25:14.112Z,102615.78
2024-01-08T01:27:40.517Z,102613.97
2024-01-08T01:30:07.669Z,102616.66
2024-01-08T01:32:34.280Z,102626.25
2024-01-08T01:35:00.784Z,102620.25
2024-01-08T01:37:27.399Z,102630.59
2024-01-08T01:39:53.809Z,102634.97
2024-01-08T01:42:20.202Z,102634.16
2024-01-08T01:44:46.630Z,102633.34
2024-01-08T01:47:13.092Z,102642.13
2024-01-08T01:49:40.769Z,102639.41
2024-01-08T01:52:09.488Z,102638.56
2024-01-08T01:54:36.502Z,102649.84
2024-01-08T01:57:04.958Z,102643.75
2024-01-08T01:59:33.379Z,102644.50
2024-01-08T02:02:01.576Z,102643.69
2024-01-08T02:04:30.422Z,102640.16
2024-01-08T02:07:00.051Z,102644.50
2024-01-08T02:09:27.937Z,102633.88
2024-01-08T02:11:54.989Z,102634.75
2024-01-08T02:14:21.459Z,102638.28
2024-01-08T02:16:49.260Z,102633.97
2024-01-08T02:19:15.842Z,102639.16
2024-01-08T02:21:42.369Z,102626.84
2024-01-08T02:24:09.048Z,102629.56
2024-01-08T02:26:37.319Z,102619.91
2024-01-08T02:29:04.059Z,102628.56
2024-01-08T02:31:31.952Z,102627.69
2024-01-08T02:33:58.515Z,102625.78
2024-01-08T02:36:25.322Z,102621.41
2024-01-08T02:38:51.782Z,102622.22
2024-01-08T02:41:18.204Z,102622.28
2024-01-08T02:43:44.813Z,102624.91
2024-01-08T02:46:11.227Z,102621.34
2024-01-08T02:48:37.740Z,102631.00
2024-01-08T02:51:04.216Z,102628.31
2024-01-08T02:53:30.758Z,102626.63
2024-01-08T02:55:57.250Z,102631.03
2024-01-08T02:58:23.677Z,102637.94
2024-01-08T03:00:50.151Z,102636.19
2024-01-08T03:03:16.646Z,102637.00
2024-01-08T03:05:43.156Z,102643.16
2024-01-08T03:08:09.663Z,102644.72
2024-01-08T03:10:36.066Z,102639.47
2024-01-08T03:13:02.512Z,102643.78
2024-01-08T03:15:29.003Z,102647.47
2024-01-08T03:17:55.456Z,102642.28
2024-01-08T03:20:24.035Z,102644.03
2024-01-08T03:22:52.389Z,102643.91
2024-01-08T03:25:19.238Z,102639.53
2024-01-08T03:27:45.863Z,102640.41
2024-01-08T03:30:12.561Z,102646.34
2024-01-08T03:32:39.235Z,102644.72
2024-01-08T03:35:05.923Z,102636.75
2024-01-08T03:37:32.737Z,102635.94
2024-01-08T03:39:59.325Z,102631.56
2024-01-08T03:42:25.780Z,102633.38
2024-01-08T03:44:52.259Z,102644.72
2024-01-08T03:47:18.837Z,102641.22
2024-01-08T03:49:45.738Z,102651.78
2024-01-08T03:52:13.016Z,102643.91
2024-01-08T03:54:39.576Z,102642.97
2024-01-08T03:57:06.169Z,102644.78
2024-01-08T03:59:32.808Z,102643.84
2024-01-08T04:01:59.528Z,102648.22
2024-01-08T04:04:26.005Z,102646.41
2024-01-08T04:06:52.408Z,102643.97
2024-01-08T04:09:19.101Z,102647.34
2024-01-08T04:11:45.727Z,102655.34
2024-01-08T04:14:13.439Z,102648.34
2024-01-08T04:16:40.028Z,102638.78
2024-01-08T04:19:07.054Z,102642.16
2024-01-08T04:21:34.507Z,102645.66
2024-01-08T04:24:00.969Z,102649.03
2024-01-08T04:26:28.348Z,102644.72
2024-01-08T04:28:55.087Z,102647.41
2024-01-08T04:31:21.878Z,102648.34
2024-01-08T04:33:49.842Z,102643.13
2024-01-08T04:36:17.093Z,102636.91
2024-01-08T04:38:46.724Z,102641.97
2024-01-08T04:41:22.882Z,102651.69
2024-01-08T04:43:50.021Z,102647.25
2024-01-08T04:46:16.744Z,102647.34
2024-01-08T04:48:43.517Z,102648.97
2024-01-08T04:51:24.220Z,102648.97
2024-01-08T04:53:51.353Z,102642.03
2024-01-08T04:56:25.063Z,102637.59
2024-01-08T04:58:55.175Z,102643.91
2024-01-08T05:01:22.931Z,102653.41
2024-01-08T05:03:49.648Z,102648.09
2024-01-08T05:06:17.425Z,102640.41
2024-01-08T05:08:43.892Z,102635.97
2024-01-08T05:11:12.019Z,102639.28
2024-01-08T05:13:41.375Z,102642.03
2024-01-08T05:16:08.239Z,102635.97
2024-01-08T05:18:34.757Z,102642.84
2024-01-08T05:21:01.253Z,102638.34
2024-01-08T05:23:27.788Z,102637.63
2024-01-08T05:25:54.356Z,102639.44
2024-01-08T05:28:20.790Z,102633.28
2024-01-08T05:30:47.442Z,102639.47
2024-01-08T05:33:14.067Z,102635.88
2024-01-08T05:35:41.935Z,102634.84
2024-01-08T05:38:08.586Z,102640.16
2024-01-08T05:40:35.076Z,102635.00
2024-01-08T05:43:01.472Z,102633.13
2024-01-08T05:45:27.898Z,102634.03
2024-01-08T05:47:55.967Z,102629.69
2024-01-08T05:50:26.740Z,102624.44
2024-01-08T05:52:53.895Z,102634.84
2024-01-08T05:55:20.740Z,102638.16
2024-01-08T05:57:47.723Z,102643.47
2024-01-08T06:00:15.260Z,102635.56
2024-01-08T06:02:43.003Z,102638.22
2024-01-08T06:05:10.586Z,102645.22
2024-01-08T06:07:37.857Z,102640.81
2024-01-08T06:10:04.934Z,102645.19
2024-01-08T06:12:31.544Z,102646.13
2024-01-08T06:14:58.283Z,102648.69
2024-01-08T06:17:24.735Z,102653.94
2024-01-08T06:19:51.223Z,102644.31
2024-01-08T06:22:17.710Z,102652.19
2024-01-08T06:24:44.471Z,102651.38
2024-01-08T06:27:10.886Z,102653.06
2024-01-08T06:29:37.408Z,102655.59
2024-01-08T06:32:04.365Z,102650.38
2024-01-08T06:34:30.905Z,102646.78
2024-01-08T06:36:57.441Z,102652.97
2024-01-08T06:39:23.884Z,102651.09
2024-01-08T06:41:50.289Z,102658.97
2024-01-08T06:44:16.831Z,102647.59
2024-01-08T06:46:43.268Z,102657.34
2024-01-08T06:49:09.962Z,102651.31
2024-01-08T06:51:41.551Z,102667.69
2024-01-08T06:54:08.971Z,102658.09
2024-01-08T06:56:35.789Z,102658.97
2024-01-08T06:59:02.742Z,102659.72
2024-01-08T07:01:29.705Z,102661.59
2024-01-08T07:03:56.206Z,102653.59
2024-01-08T07:06:22.894Z,102647.53
2024-01-08T07:08:49.326Z,102649.44
2024-01-08T07:11:24.093Z,102646.88
2024-01-08T07:13:51.280Z,102660.78
2024-01-08T07:16:18.736Z,102662.53
2024-01-08T07:18:46.000Z,102663.38
2024-01-08T07:21:17.898Z,102665.28
2024-01-08T07:23:49.455Z,102672.22
2024-01-08T07:26:17.619Z,102668.66
2024-01-08T07:28:45.194Z,102666.91
2024-01-08T07:31:12.681Z,102669.59
2024-01-08T07:33:39.481Z,102674.72
2024-01-08T07:36:06.287Z,102672.00
2024-01-08T07:38:33.210Z,102673.00
2024-01-08T07:41:02.513Z,102679.13
2024-01-08T07:43:29.073Z,102673.88
2024-01-08T07:45:55.791Z,102678.31
2024-01-08T07:48:22.311Z,102684.44
2024-01-08T07:50:49.882Z,102677.38
2024-01-08T07:53:17.506Z,102682.56
2024-01-08T07:55:44.049Z,102680.88
2024-01-08T07:58:14.617Z,102678.25
2024-01-08T08:00:42.135Z,102687.03
2024-01-08T08:03:09.162Z,102691.34
2024-01-08T08:05:35.835Z,102692.16
2024-01-08T08:08:02.495Z,102690.41
2024-01-08T08:10:29.045Z,102687.78
2024-01-08T08:12:55.618Z,102691.31
2024-01-08T08:15:22.123Z,102691.34
2024-01-08T08:17:48.714Z,102692.97
2024-01-08T08:20:15.446Z,102695.66
2024-01-08T08:22:44.177Z,102695.66
2024-01-08T08:25:11.489Z,102697.47
2024-01-08T08:27:37.944Z,102701.56
2024-01-08T08:30:04.853Z,102697.25
2024-01-08T08:32:31.546Z,102699.16
2024-01-08T08:34:58.148Z,102707.88
2024-01-08T08:37:39.532Z,102707.91
2024-01-08T08:40:13.696Z,102710.66
2024-01-08T08:42:40.197Z,102706.22
2024-01-08T08:45:07.829Z,102705.25
2024-01-08T08:47:34.329Z,102715.75
2024-01-08T08:50:00.774Z,102714.81
2024-01-08T08:52:27.259Z,102714.00
2024-01-08T08:54:53.670Z,102709.56
2024-01-08T08:57:20.401Z,102717.50
2024-01-08T08:59:48.376Z,102720.13
2024-01-08T09:02:15.166Z,102717.38
2024-01-08T09:04:41.724Z,102724.28
2024-01-08T09:07:08.324Z,102733.97
2024-01-08T09:09:34.827Z,102734.03
2024-01-08T09:12:01.192Z,102727.91
2024-01-08T09:14:27.720Z,102733.91
2024-01-08T09:16:54.224Z,102733.16
2024-01-08T09:19:20.696Z,102732.28
2024-01-08T09:21:48.966Z,102741.81
2024-01-08T09:24:15.370Z,102746.06
2024-01-08T09:26:43.104Z,102747.69
2024-01-08T09:29:10.064Z,102751.03
2024-01-08T09:31:36.668Z,102748.47
2024-01-08T09:34:03.574Z,102753.59
2024-01-08T09:36:30.075Z,102752.50
2024-01-08T09:38:56.472Z,102753.44
2024-01-08T09:41:24.464Z,102754.59
2024-01-08T09:43:53.200Z,102757.16
2024-01-08T09:46:27.653Z,102751.66
2024-01-08T09:48:57.476Z,102763.72
2024-01-08T09:51:24.449Z,102763.72
2024-01-08T09:53:53.654Z,102752.50
2024-01-08T09:56:21.120Z,102756.06
2024-01-08T09:58:47.673Z,102761.25
2024-01-08T10:01:14.148Z,102774.50
2024-01-08T10:03:40.608Z,102766.72
2024-01-08T10:06:08.677Z,102770.34
2024-01-08T10:08:35.514Z,102766.09
2024-01-08T10:11:04.142Z,102764.44
2024-01-08T10:13:30.565Z,102765.31
2024-01-08T10:15:57.657Z,102768.84
2024-01-08T10:18:24.489Z,102780.06
2024-01-08T10:21:11.708Z,102778.28
2024-01-08T10:23:38.809Z,102778.34
2024-01-08T10:26:05.724Z,102782.97
2024-01-08T10:28:38.711Z,102776.72
2024-01-08T10:31:06.452Z,102773.28
2024-01-08T10:33:33.692Z,102777.59
2024-01-08T10:36:08.724Z,102771.28
2024-01-08T10:38:35.336Z,102771.47
2024-01-08T10:41:03.144Z,102770.31
2024-01-08T10:43:30.701Z,102776.19
2024-01-08T10:46:06.001Z,102775.59
2024-01-08T10:48:51.808Z,102780.75
2024-01-08T10:51:19.369Z,102776.50
2024-01-08T10:53:47.261Z,102778.94
2024-01-08T10:56:21.775Z,102781.75
2024-01-08T10:59:07.275Z,102784.38
2024-01-08T11:01:34.297Z,102776.38
2024-01-08T11:04:02.382Z,102770.53
2024-01-08T11:06:30.396Z,102766.97
2024-01-08T11:08:58.395Z,102764.50
2024-01-08T11:11:24.890Z,102770.78
2024-01-08T11:13:51.339Z,102768.16
2024-01-08T11:16:30.590Z,102774.09
2024-01-08T11:19:20.238Z,102765.41
2024-01-08T11:21:50.286Z,102762.59
2024-01-08T11:24:17.264Z,102773.06
2024-01-08T11:26:45.259Z,102773.91
2024-01-08T11:29:12.428Z,102766.97
2024-01-08T11:31:48.912Z,102761.66
2024-01-08T11:34:40.291Z,102773.22
2024-01-08T11:37:32.963Z,102774.09
2024-01-08T11:40:11.409Z,102768.78
2024-01-08T11:42:37.939Z,102763.44
2024-01-08T11:45:04.600Z,102772.00
2024-01-08T11:47:32.609Z,102775.59
2024-01-08T11:49:59.116Z,102767.09
2024-01-08T11:52:29.443Z,102766.34
2024-01-08T11:54:56.837Z,102765.47
2024-01-08T11:57:24.047Z,102763.78
2024-01-08T11:59:50.743Z,102764.53
2024-01-08T12:02:22.150Z,102766.09
2024-01-08T12:04:59.885Z,102756.41
2024-01-08T12:07:30.094Z,102762.38
2024-01-08T12:09:58.944Z,102757.22
2024-01-08T12:12:25.964Z,102757.06
2024-01-08T12:14:53.210Z,102760.72
2024-01-08T12:17:20.119Z,102754.72
2024-01-08T12:19:49.338Z,102760.88
2024-01-08T12:22:17.999Z,102763.56
2024-01-08T12:24:48.776Z,102760.06
2024-01-08T12:27:20.842Z,102767.25
2024-01-08T12:29:50.536Z,102756.66
2024-01-08T12:32:19.655Z,102759.19
2024-01-08T12:34:46.542Z,102766.13
2024-01-08T12:37:15.988Z,102768.53
2024-01-08T12:39:44.543Z,102765.91
2024-01-08T12:42:15.748Z,102767.78
2024-01-08T12:44:44.760Z,102759.25
2024-01-08T12:47:11.420Z,102779.31
2024-01-08T12:49:38.551Z,102766.09
2024-01-08T12:52:08.422Z,102767.78
2024-01-08T12:54:38.296Z,102759.97
2024-01-08T12:57:05.383Z,102753.88
2024-01-08T12:59:35.457Z,102759.63
2024-01-08T13:02:02.291Z,102753.75
2024-01-08T13:04:28.710Z,102758.50
2024-01-08T13:06:55.554Z,102758.41
2024-01-08T13:09:22.043Z,102750.56
2024-01-08T13:11:48.653Z,102752.25
2024-01-08T13:14:15.431Z,102753.25
2024-01-08T13:16:43.683Z,102750.69
2024-01-08T13:19:11.167Z,102757.47
2024-01-08T13:21:43.201Z,102757.47
2024-01-08T13:24:15.597Z,102764.41
2024-01-08T13:26:42.953Z,102770.47
2024-01-08T13:29:12.448Z,102764.38
2024-01-08T13:31:41.028Z,102760.78
2024-01-08T13:34:07.972Z,102759.88
2024-01-08T13:36:36.027Z,102766.03
2024-01-08T13:39:02.510Z,102761.47
2024-01-08T13:41:34.897Z,102760.88
2024-01-08T13:44:04.783Z,102761.59
2024-01-08T13:46:31.616Z,102754.53
2024-01-08T13:48:58.439Z,102757.28
2024-01-08T13:51:25.019Z,102755.53
2024-01-08T13:53:51.916Z,102759.88
2024-01-08T13:56:18.643Z,102759.88
2024-01-08T13:58:45.045Z,102758.09
2024-01-08T14:01:13.692Z,102772.06
2024-01-08T14:03:40.081Z,102770.28
2024-01-08T14:06:06.646Z,102769.66
2024-01-08T14:08:33.225Z,102775.66
2024-01-08T14:11:00.703Z,102778.28
2024-01-08T14:13:27.116Z,102777.59
2024-01-08T14:15:53.616Z,102775.91
2024-01-08T14:18:20.245Z,102777.72
2024-01-08T14:20:47.093Z,102785.56
2024-01-08T14:23:13.596Z,102771.69
2024-01-08T14:25:40.224Z,102784.81
2024-01-08T14:28:06.615Z,102789.13
2024-01-08T14:30:33.603Z,102795.25
2024-01-08T14:33:01.040Z,102791.94
2024-01-08T14:35:28.114Z,102791.88
2024-01-08T14:37:55.002Z,102791.94
2024-01-08T14:40:28.844Z,102796.41
2024-01-08T14:42:56.978Z,102798.19
2024-01-08T14:45:23.664Z,102805.09
2024-01-08T14:47:50.320Z,102800.78
2024-01-08T14:50:18.420Z,102800.00
2024-01-08T14:52:47.028Z,102806.13
2024-01-08T14:55:13.495Z,102808.00
2024-01-08T14:57:39.942Z,102807.13
2024-01-08T15:00:10.216Z,102805.38
2024-01-08T15:02:36.673Z,102795.78
2024-01-08T15:05:03.288Z,102802.84
2024-01-08T15:07:29.759Z,102801.94
2024-01-08T15:09:58.679Z,102804.75
2024-01-08T15:12:25.459Z,102803.78
2024-01-08T15:14:51.956Z,102811.59
2024-01-08T15:17:18.519Z,102812.59
2024-01-08T15:19:45.108Z,102810.91
2024-01-08T15:22:11.520Z,102824.78
2024-01-08T15:24:39.247Z,102833.50
2024-01-08T15:27:05.984Z,102828.41
2024-01-08T15:29:35.740Z,102831.94
2024-01-08T15:32:02.759Z,102834.56
2024-01-08T15:34:29.235Z,102844.16
2024-01-08T15:36:55.659Z,102846.81
2024-01-08T15:39:22.028Z,102837.19
2024-01-08T15:41:48.467Z,102843.34
2024-01-08T15:44:15.260Z,102844.28
2024-01-08T15:46:43.596Z,102848.66
2024-01-08T15:49:10.422Z,102847.78
2024-01-08T15:51:36.896Z,102850.31
2024-01-08T15:54:04.002Z,102850.44
2024-01-08T15:56:30.571Z,102863.44
2024-01-08T15:58:58.761Z,102861.78
2024-01-08T16:01:26.727Z,102858.25
2024-01-08T16:03:53.804Z,102868.78
2024-01-08T16:06:23.252Z,102869.75
2024-01-08T16:08:50.037Z,102868.00
2024-01-08T16:11:18.104Z,102867.09
2024-01-08T16:13:47.754Z,102871.50
2024-01-08T16:16:14.187Z,102876.72
2024-01-08T16:18:41.918Z,102879.34
2024-01-08T16:21:08.827Z,102876.72
2024-01-08T16:23:36.171Z,102880.25
2024-01-08T16:26:03.227Z,102874.19
2024-01-08T16:28:29.801Z,102881.13
2024-01-08T16:30:56.279Z,102891.66
2024-01-08T16:33:22.886Z,102889.06
2024-01-08T16:35:49.592Z,102900.38
2024-01-08T16:38:16.756Z,102898.63
2024-01-08T16:40:43.315Z,102892.50
2024-01-08T16:43:10.205Z,102902.13
2024-01-08T16:45:36.622Z,102905.63
2024-01-08T16:48:03.452Z,102916.19
2024-01-08T16:50:30.152Z,102903.09
2024-01-08T16:52:56.676Z,102908.34
2024-01-08T16:55:23.069Z,102905.72
2024-01-08T16:57:49.520Z,102910.06
2024-01-08T17:00:17.089Z,102909.19
2024-01-08T17:02:44.009Z,102914.44
2024-01-08T17:05:11.258Z,102917.09
2024-01-08T17:07:37.832Z,102910.97
2024-01-08T17:10:04.984Z,102915.31
2024-01-08T17:12:31.403Z,102919.72
2024-01-08T17:14:57.867Z,102925.84
2024-01-08T17:17:24.704Z,102922.38
2024-01-08T17:19:51.188Z,102916.22
2024-01-08T17:22:18.441Z,102933.66
2024-01-08T17:24:44.832Z,102927.56
2024-01-08T17:27:11.551Z,102927.59
2024-01-08T17:29:38.861Z,102929.28
2024-01-08T17:32:05.703Z,102936.34
2024-01-08T17:34:32.320Z,102931.09
2024-01-08T17:36:58.828Z,102933.69
2024-01-08T17:39:25.919Z,102936.34
2024-01-08T17:41:52.430Z,102936.34
2024-01-08T17:44:18.928Z,102940.72
2024-01-08T17:46:45.381Z,102939.88
2024-01-08T17:49:14.322Z,102947.75
2024-01-08T17:51:40.756Z,102950.34
2024-01-08T17:54:07.519Z,102959.88
2024-01-08T17:56:41.723Z,102954.66
2024-01-08T17:59:08.921Z,102952.03
2024-01-08T18:01:39.123Z,102964.25
2024-01-08T18:04:06.908Z,102965.16
2024-01-08T18:06:34.816Z,102964.28
2024-01-08T18:09:04.687Z,102961.69
2024-01-08T18:11:32.433Z,102956.47
2024-01-08T18:13:59.341Z,102963.41
2024-01-08T18:16:25.807Z,102967.78
2024-01-08T18:18:52.243Z,102964.34
2024-01-08T18:21:26.072Z,102977.41
2024-01-08T18:23:52.748Z,102969.59
2024-01-08T18:26:19.502Z,102971.34
2024-01-08T18:28:46.010Z,102977.41
2024-01-08T18:31:12.456Z,102979.16
2024-01-08T18:33:39.697Z,102974.84
2024-01-08T18:36:06.693Z,102989.66
2024-01-08T18:38:36.150Z,102985.31
2024-01-08T18:41:02.716Z,102980.97
2024-01-08T18:43:29.173Z,102974.84
2024-01-08T18:45:55.609Z,102972.22
2024-01-08T18:48:24.532Z,102982.72
2024-01-08T18:50:55.153Z,102980.06
2024-01-08T18:53:22.017Z,102975.72
2024-01-08T18:55:48.747Z,102984.44
2024-01-08T18:58:18.093Z,102983.59
2024-01-08T19:00:46.883Z,102996.66
2024-01-08T19:03:13.347Z,102997.53
2024-01-08T19:05:39.868Z,102994.03
2024-01-08T19:08:06.811Z,103001.00
2024-01-08T19:10:33.243Z,102996.66
2024-01-08T19:12:59.633Z,103003.63
2024-01-08T19:15:26.015Z,102988.81
2024-01-08T19:17:52.824Z,102996.69
2024-01-08T19:20:23.133Z,102995.78
2024-01-08T19:22:50.504Z,103001.91
2024-01-08T19:25:17.304Z,103004.53
2024-01-08T19:27:43.745Z,102997.56
2024-01-08T19:30:10.628Z,103002.78
2024-01-08T19:32:37.180Z,103001.03
2024-01-08T19:35:03.968Z,103003.66
2024-01-08T19:37:30.574Z,102999.31
2024-01-08T19:39:57.629Z,103001.94
2024-01-08T19:42:24.018Z,103000.19
2024-01-08T19:44:50.621Z,103001.06
2024-01-08T19:47:17.248Z,102995.84
2024-01-08T19:49:45.627Z,103005.41
2024-01-08T19:52:12.142Z,103002.81
2024-01-08T19:54:39.879Z,103001.94
2024-01-08T19:57:09.722Z,102996.72
2024-01-08T19:59:36.146Z,103000.19
2024-01-08T20:02:03.216Z,102997.63
2024-01-08T20:04:29.674Z,103000.22
2024-01-08T20:06:56.302Z,102993.25
2024-01-08T20:09:23.194Z,102996.75
2024-01-08T20:11:49.660Z,103000.19
2024-01-08T20:14:16.252Z,103002.81
2024-01-08T20:16:43.366Z,102990.66
2024-01-08T20:19:09.838Z,102995.88
2024-01-08T20:21:36.323Z,103003.72
2024-01-08T20:24:02.923Z,102996.75
2024-01-08T20:26:29.413Z,103001.97
2024-01-08T20:28:55.897Z,103002.00
2024-01-08T20:31:22.366Z,103001.09
2024-01-08T20:33:49.244Z,103004.59
2024-01-08T20:36:15.900Z,103003.72
2024-01-08T20:38:42.364Z,103002.88
2024-01-08T20:41:09.043Z,102999.38
2024-01-08T20:43:35.475Z,103001.09
2024-01-08T20:46:02.113Z,103002.88
2024-01-08T20:48:28.838Z,103010.69
2024-01-08T20:50:55.347Z,103009.81
2024-01-08T20:53:21.856Z,103008.97
2024-01-08T20:55:48.345Z,103013.28
2024-01-08T20:58:14.812Z,103014.19
2024-01-08T21:00:41.398Z,103006.34
2024-01-08T21:03:07.913Z,103008.06
2024-01-08T21:05:34.507Z,103004.59
2024-01-08T21:08:01.926Z,103012.44
2024-01-08T21:10:28.484Z,103014.16
2024-01-08T21:12:54.923Z,103017.66
2024-01-08T21:15:21.494Z,102999.38
2024-01-08T21:17:48.051Z,103015.94
2024-01-08T21:20:14.696Z,103021.13
2024-01-08T21:22:41.960Z,103013.28
2024-01-08T21:25:09.567Z,103018.53
2024-01-08T21:27:36.103Z,103008.06
2024-01-08T21:30:02.563Z,103019.41
2024-01-08T21:32:29.357Z,103021.13
2024-01-08T21:34:55.793Z,103008.97
2024-01-08T21:37:22.453Z,103028.97
2024-01-08T21:39:48.979Z,103025.50
2024-01-08T21:42:15.643Z,103017.69
2024-01-08T21:44:42.128Z,103015.06
2024-01-08T21:47:08.590Z,103026.38
2024-01-08T21:49:35.080Z,103012.44
2024-01-08T21:52:01.515Z,103015.94
2024-01-08T21:54:27.911Z,103008.97
2024-01-08T21:56:54.391Z,103011.59
2024-01-08T21:59:20.979Z,103013.31
2024-01-08T22:01:47.612Z,103017.66
2024-01-08T22:04:14.116Z,103018.53
2024-01-08T22:06:40.544Z,103029.84
2024-01-08T22:09:07.038Z,103025.50
2024-01-08T22:11:33.583Z,103022.91
2024-01-08T22:14:00.043Z,103032.47
2024-01-08T22:16:26.460Z,103027.22
2024-01-08T22:18:52.853Z,103031.59
2024-01-08T22:21:19.389Z,103038.53
2024-01-08T22:23:45.924Z,103041.16
2024-01-08T22:26:12.481Z,103039.41
2024-01-08T22:28:38.911Z,103040.28
2024-01-08T22:31:05.805Z,103044.66
2024-01-08T22:33:32.409Z,103041.16
2024-01-08T22:35:58.945Z,103055.97
2024-01-08T22:38:26.197Z,103048.09
2024-01-08T22:40:52.797Z,103048.13
2024-01-08T22:43:19.209Z,103048.97
2024-01-08T22:45:45.648Z,103044.63
2024-01-08T22:48:12.134Z,103053.31
2024-01-08T22:50:38.611Z,103059.38
2024-01-08T22:53:05.080Z,103055.06
2024-01-08T22:55:31.521Z,103053.31
2024-01-08T22:57:57.988Z,103057.66
2024-01-08T23:00:25.133Z,103058.53
2024-01-08T23:02:52.312Z,103062.00
2024-01-08T23:05:19.154Z,103055.06
2024-01-08T23:07:45.652Z,103062.88
2024-01-08T23:10:12.077Z,103059.38
2024-01-08T23:12:38.536Z,103055.91
2024-01-08T23:15:05.512Z,103052.44
2024-01-08T23:17:31.966Z,103060.25
2024-01-08T23:19:58.470Z,103049.81
2024-01-08T23:22:25.244Z,103058.50
2024-01-08T23:24:51.760Z,103059.38
2024-01-08T23:27:18.389Z,103057.66
2024-01-08T23:29:44.978Z,103059.38
2024-01-08T23:32:11.481Z,103056.78
2024-01-08T23:34:37.985Z,103056.75
2024-01-08T23:37:04.676Z,103057.66
2024-01-08T23:39:34.045Z,103059.41
2024-01-08T23:42:00.449Z,103060.25
2024-01-08T23:44:26.851Z,103058.53
2024-01-08T23:46:53.475Z,103055.91
2024-01-08T23:49:21.488Z,103053.28
2024-01-08T23:51:47.950Z,103062.84
2024-01-08T23:54:14.494Z,103058.50
2024-01-08T23:56:40.943Z,103068.03
2024-01-08T23:59:07.534Z,103068.03
